CheckWX is a tool to help pilots better visualize weather data.  It is not intended as a substitute for an official pre-flight weather briefing.

07:12:16 UTC

79J METAR
South Alabama Regional at Bill Benton Field Airport
Andalusia, Alabama, USA
Current

16 mins ago

K79J 260656Z AUTO 00000KT 10SM CLR 24/19 A3011 RMK AO2 SLP191 T02390194
Observed
May-26 @ 06:56 UTC
Visibility
10 SM
Flight Rules
VFR
Cloud Levels
  • Clear skies
Temperature
24°C / 75°F
Dewpoint
19°C / 66°F
Humidity
74%
Altimeter
30.11" Hg
Pressure
1019.62 hPa
Previous

1 hour ago

K79J 260556Z AUTO 00000KT 10SM FEW080 24/20 A3011 RMK AO2 SLP192 T02440200 10344 20244 50000
Observed
May-26 @ 05:56 UTC
Visibility
10 SM
Flight Rules
VFR
Cloud Levels
  • Few at 8,000' AGL
Temperature
24°C / 75°F
Dewpoint
20°C / 68°F
Humidity
78%
Altimeter
30.11" Hg
Pressure
1019.62 hPa
Previous

2 hours ago

K79J 260456Z AUTO 00000KT 10SM CLR 26/20 A3012 RMK AO2 SLP192 T02560200 403780211
Observed
May-26 @ 04:56 UTC
Visibility
10 SM
Flight Rules
VFR
Cloud Levels
  • Clear skies
Temperature
26°C / 79°F
Dewpoint
20°C / 68°F
Humidity
70%
Altimeter
30.12" Hg
Pressure
1020.02 hPa